EmailTwitter


Observations de surface / Québec / LFKJ

Régions: Québec | Canada | États-Unis | Europe | France | UK | Ailleurs
Station
Affichage
Infos & localisation pour LFKJ | Aide pour décoder les METARs

Observations prises le 2017-09-26 à 16H00 UTC à AJACCIO/CAMPO OR, FR (LFKJ)

Etat du ciel: ciel variable.

Température: 23.0 Celsius

Point de rosée: 15.0 Celsius

Humidité relative: 61%

Indice Humidex: 27.

Vents: Ouest-nord-ouest à 11 km/h ou 6 noeuds.

Pression au niveau moyen de la mer: 101.70 kilopascals.

Visibilité horizontale: 6.21 milles terrestres ou 9.94 kilomètres.

Observation METAR:

LFKJ 261600Z 29006KT 9999 FEW028 SCT043 23/15 Q1017 NOSIG=